Weather at Santa Fe Municipal Airport

Public forecast

Using degrees Fahrenheit for public forecast. Weather courtesy of forecast.io.

Current aviation weather report (METAR) for Santa Fe Municipal Airport

2024/07/13 21:53 (retrieved 54 minutes ago)

KSAF 132153Z 20005KT 10SM CLR 34/04 A3030 RMK AO2 LTG DSNT NE SLP142 T03440044

Aviation forecast (TAF) for Santa Fe Municipal Airport

2024/07/13 18:39 (retrieved 4 hours ago)

TAF KSAF 131736Z 1318/1418 23010KT P6SM FEW100 FM132200 14011KT P6SM VCTS SCT090CB BKN150 TEMPO 1322/1401 VRB25G35KT FM140100 09009KT P6SM SCT150 FM140300 05006KT P6SM FEW200 FM141200 36007KT P6SM SKC